Time;durP1;ratioP1;P1;durP2;ratioP2;P2;SDS_P1;SDS_P2;PMS_P1;PMS_P2;Temp;Humidity;BMP_temperature;BMP_pressure;BME280_temperature;BME280_humidity;BME280_pressure;Samples;Min_cycle;Max_cycle;Signal;HPM_P1;HPM_P2
2021/04/30 00:01:49;;;;;;;119.32;35.38;;;7.60;99.90;;;;;;5071328;28;20044;-82
2021/04/30 00:04:16;;;;;;;148.65;37.35;;;7.70;99.90;;;;;;5074268;28;20056;-82
2021/04/30 00:06:42;;;;;;;81.15;32.35;;;7.70;99.90;;;;;;5062447;28;20123;-82
2021/04/30 00:09:08;;;;;;;74.60;32.58;;;7.70;99.90;;;;;;5067963;28;20052;-82
2021/04/30 00:11:35;;;;;;;98.55;34.72;;;7.70;99.90;;;;;;5068909;28;20046;-82
2021/04/30 00:14:01;;;;;;;113.65;35.45;;;7.70;99.90;;;;;;5069809;28;20074;-82
2021/04/30 00:16:27;;;;;;;101.60;35.15;;;7.80;99.90;;;;;;5066536;28;20144;-82
2021/04/30 00:18:54;;;;;;;91.63;33.47;;;7.80;99.90;;;;;;5072131;28;20049;-82
2021/04/30 00:21:20;;;;;;;77.97;33.33;;;7.80;99.90;;;;;;5070562;28;20085;-82
2021/04/30 00:23:46;;;;;;;83.13;32.95;;;7.80;99.90;;;;;;5083725;28;20079;-82
2021/04/30 00:26:13;;;;;;;89.35;36.03;;;7.80;99.90;;;;;;5086474;28;20052;-82
2021/04/30 00:28:39;;;;;;;87.55;34.67;;;7.80;99.90;;;;;;5083789;28;20075;-82
2021/04/30 00:31:05;;;;;;;85.72;35.95;;;7.80;99.90;;;;;;5093983;28;20044;-82
2021/04/30 00:33:32;;;;;;;89.97;35.03;;;7.80;99.90;;;;;;5088053;28;20403;-82
2021/04/30 00:35:58;;;;;;;83.75;32.63;;;7.80;99.90;;;;;;5103235;28;20121;-82
2021/04/30 00:38:24;;;;;;;77.43;34.63;;;7.80;99.90;;;;;;5086265;28;20044;-82
2021/04/30 00:40:52;;;;;;;97.03;35.15;;;7.80;99.90;;;;;;5098421;28;20167;-82
2021/04/30 00:43:19;;;;;;;74.15;33.53;;;7.80;99.90;;;;;;5087329;28;20062;-82
2021/04/30 00:45:46;;;;;;;90.78;34.05;;;7.80;99.90;;;;;;5087966;28;20054;-81
2021/04/30 00:48:12;;;;;;;85.20;34.72;;;7.80;99.90;;;;;;5080327;28;20169;-82
2021/04/30 00:50:38;;;;;;;86.30;33.55;;;7.80;99.90;;;;;;5085769;28;20060;-82
2021/04/30 00:53:05;;;;;;;78.80;33.45;;;7.80;99.90;;;;;;5087048;28;20625;-82
2021/04/30 00:55:31;;;;;;;74.50;32.65;;;7.90;99.90;;;;;;5085265;28;20507;-82
2021/04/30 00:58:00;;;;;;;73.30;32.95;;;7.90;99.90;;;;;;5103767;28;20127;-82
2021/04/30 01:00:32;;;;;;;89.40;35.20;;;7.90;99.90;;;;;;5106397;28;20093;-82
2021/04/30 01:02:59;;;;;;;87.53;33.65;;;7.90;99.90;;;;;;5081973;28;20072;-82
2021/04/30 01:05:26;;;;;;;82.28;34.40;;;7.90;99.90;;;;;;5066985;28;20135;-82
2021/04/30 01:07:53;;;;;;;84.10;33.85;;;7.90;99.90;;;;;;5060837;28;20167;-82
2021/04/30 01:10:20;;;;;;;63.67;31.77;;;7.90;99.90;;;;;;5069549;28;20052;-82
2021/04/30 01:12:48;;;;;;;70.50;32.50;;;7.80;99.90;;;;;;5081761;28;20093;-82
2021/04/30 01:15:16;;;;;;;79.13;34.03;;;7.80;99.90;;;;;;5061841;28;20048;-81
2021/04/30 01:17:43;;;;;;;59.60;30.10;;;7.80;99.90;;;;;;5062400;28;20094;-82
2021/04/30 01:20:11;;;;;;;74.35;32.75;;;7.80;99.90;;;;;;5061223;28;20048;-82
2021/04/30 01:22:39;;;;;;;65.30;31.63;;;7.80;99.90;;;;;;5061856;28;20587;-82
2021/04/30 01:25:18;;;;;;;76.43;34.33;;;7.90;99.90;;;;;;5061067;28;20067;-82
2021/04/30 01:27:45;;;;;;;59.22;30.63;;;7.80;99.90;;;;;;5082085;28;20071;-82
2021/04/30 01:30:19;;;;;;;67.93;32.08;;;7.80;99.90;;;;;;5064654;28;20072;-82
2021/04/30 01:32:46;;;;;;;55.20;28.30;;;7.90;99.90;;;;;;5060535;28;20045;-82
2021/04/30 01:35:22;;;;;;;67.53;30.30;;;7.90;99.90;;;;;;5066264;28;20052;-82
2021/04/30 01:37:49;;;;;;;56.22;29.00;;;7.90;99.90;;;;;;5064842;28;20045;-82
2021/04/30 01:40:18;;;;;;;58.50;30.00;;;7.90;99.90;;;;;;5064807;28;20052;-81
2021/04/30 01:43:09;;;;;;;57.90;30.88;;;7.90;99.90;;;;;;5062599;28;20048;-82
2021/04/30 01:45:42;;;;;;;62.87;31.30;;;7.90;99.90;;;;;;5068616;28;20065;-82
2021/04/30 01:48:22;;;;;;;60.05;30.17;;;7.90;99.90;;;;;;5065418;28;20048;-82
2021/04/30 01:50:49;;;;;;;68.78;31.67;;;7.90;99.90;;;;;;5066873;28;20131;-81
2021/04/30 01:53:18;;;;;;;62.38;30.90;;;7.80;99.90;;;;;;5068421;28;21131;-81
2021/04/30 01:55:45;;;;;;;56.72;30.67;;;7.90;99.90;;;;;;5066792;28;20048;-82
2021/04/30 01:58:11;;;;;;;68.57;31.45;;;7.80;99.90;;;;;;5064882;28;20044;-82
2021/04/30 02:00:38;;;;;;;63.70;31.13;;;7.80;99.90;;;;;;5059242;28;20052;-82
2021/04/30 02:03:04;;;;;;;57.97;30.25;;;7.80;99.90;;;;;;5064849;28;20045;-82
2021/04/30 02:05:33;;;;;;;86.07;34.08;;;7.80;99.90;;;;;;5067208;28;20051;-82
2021/04/30 02:08:05;;;;;;;58.25;30.75;;;7.80;99.90;;;;;;5060382;28;20535;-82
2021/04/30 02:10:32;;;;;;;56.88;30.52;;;7.80;99.90;;;;;;5066580;28;20376;-82
2021/04/30 02:12:59;;;;;;;56.95;30.27;;;7.80;99.90;;;;;;5063950;28;20068;-81
2021/04/30 02:15:32;;;;;;;68.65;30.35;;;7.70;99.90;;;;;;5069118;28;20044;-82
2021/04/30 02:17:58;;;;;;;71.43;31.33;;;7.70;99.90;;;;;;5067200;28;20045;-82
2021/04/30 02:20:24;;;;;;;54.38;28.00;;;7.70;99.90;;;;;;5068748;28;20063;-82
2021/04/30 02:22:51;;;;;;;65.18;29.77;;;7.70;99.90;;;;;;5070164;28;20066;-82
2021/04/30 02:25:19;;;;;;;70.75;31.42;;;7.70;99.90;;;;;;5071610;28;20123;-82
2021/04/30 02:27:47;;;;;;;69.55;32.45;;;7.70;99.90;;;;;;5082909;28;20144;-82
2021/04/30 02:30:15;;;;;;;73.65;30.23;;;7.70;99.90;;;;;;5085330;28;20103;-82
2021/04/30 02:32:42;;;;;;;91.30;33.45;;;7.70;99.90;;;;;;5090675;28;20589;-82
2021/04/30 02:35:15;;;;;;;72.72;31.60;;;7.60;99.90;;;;;;5077469;28;20185;-82
2021/04/30 02:37:41;;;;;;;104.68;34.50;;;7.60;99.90;;;;;;5067605;28;20460;-82
2021/04/30 02:40:09;;;;;;;93.32;34.08;;;7.60;99.90;;;;;;5067921;28;20048;-82
2021/04/30 02:42:36;;;;;;;79.88;32.67;;;7.60;99.90;;;;;;5068453;28;20045;-82
2021/04/30 02:45:05;;;;;;;88.88;33.53;;;7.60;99.90;;;;;;5068618;28;20044;-82
2021/04/30 02:47:33;;;;;;;84.82;32.42;;;7.60;99.90;;;;;;5070151;28;20139;-82
2021/04/30 02:50:00;;;;;;;83.30;33.63;;;7.50;99.90;;;;;;5066801;28;20123;-82
2021/04/30 02:52:27;;;;;;;63.83;31.33;;;7.50;99.90;;;;;;5067514;28;20076;-82
2021/04/30 02:54:54;;;;;;;81.95;32.47;;;7.50;99.90;;;;;;5069715;28;20467;-83
2021/04/30 02:57:20;;;;;;;107.85;36.40;;;7.50;99.90;;;;;;5069528;28;20060;-82
2021/04/30 02:59:47;;;;;;;90.10;33.65;;;7.50;99.90;;;;;;5079483;28;20107;-82
2021/04/30 03:02:14;;;;;;;69.85;32.78;;;7.50;99.90;;;;;;5087668;28;20107;-82
2021/04/30 03:04:41;;;;;;;76.22;31.88;;;7.40;99.90;;;;;;5090671;28;20040;-82
2021/04/30 03:07:08;;;;;;;76.07;32.75;;;7.40;99.90;;;;;;5082379;28;23071;-82
2021/04/30 03:09:35;;;;;;;73.25;32.20;;;7.40;99.90;;;;;;5090831;28;20063;-82
2021/04/30 03:12:02;;;;;;;67.72;31.95;;;7.40;99.90;;;;;;5091252;28;20060;-81
2021/04/30 03:14:29;;;;;;;75.40;32.72;;;7.40;99.90;;;;;;5105341;28;20052;-82
2021/04/30 03:16:55;;;;;;;124.35;36.40;;;7.40;99.90;;;;;;5071828;28;20150;-82
2021/04/30 03:19:22;;;;;;;101.93;34.30;;;7.30;99.90;;;;;;5081481;28;20057;-82
2021/04/30 03:21:48;;;;;;;101.78;35.55;;;7.30;99.90;;;;;;5072364;28;20131;-82
2021/04/30 03:24:14;;;;;;;74.43;32.80;;;7.30;99.90;;;;;;5071337;28;20044;-82
2021/04/30 03:26:41;;;;;;;80.50;33.10;;;7.30;99.90;;;;;;5072720;28;20080;-82
2021/04/30 03:29:07;;;;;;;82.35;33.80;;;7.30;99.90;;;;;;5070069;28;20135;-83
2021/04/30 03:31:33;;;;;;;102.93;35.92;;;7.30;99.90;;;;;;5071111;28;20048;-82
2021/04/30 03:34:00;;;;;;;77.88;33.85;;;7.30;99.90;;;;;;5066446;28;20063;-83
2021/04/30 03:36:26;;;;;;;81.85;32.65;;;7.20;99.90;;;;;;5085393;28;20048;-82
2021/04/30 03:38:53;;;;;;;86.18;34.65;;;7.20;99.90;;;;;;5076194;28;20053;-82
2021/04/30 03:41:19;;;;;;;103.15;35.15;;;7.20;99.90;;;;;;5063322;28;20131;-82
2021/04/30 03:43:46;;;;;;;106.28;37.53;;;7.20;99.90;;;;;;5067826;28;20080;-82
2021/04/30 03:46:13;;;;;;;91.60;33.75;;;7.20;99.90;;;;;;5073688;28;20562;-82
2021/04/30 03:48:39;;;;;;;113.47;37.63;;;7.20;99.90;;;;;;5069656;28;20079;-82
2021/04/30 03:51:06;;;;;;;101.95;36.53;;;7.20;99.90;;;;;;5069022;28;20510;-82
2021/04/30 03:53:32;;;;;;;103.80;36.25;;;7.10;99.90;;;;;;5072661;28;20109;-82
2021/04/30 03:55:59;;;;;;;89.47;35.25;;;7.10;99.90;;;;;;5087881;28;20058;-82
2021/04/30 03:58:25;;;;;;;95.85;36.50;;;7.10;99.90;;;;;;5085998;28;20504;-82
2021/04/30 04:00:51;;;;;;;99.57;36.38;;;7.10;99.90;;;;;;5089597;28;20475;-82
2021/04/30 04:03:17;;;;;;;97.00;35.75;;;7.10;99.90;;;;;;5086737;28;20499;-82
2021/04/30 04:05:44;;;;;;;103.00;36.78;;;7.10;99.90;;;;;;5080439;28;20087;-83
2021/04/30 04:08:10;;;;;;;111.93;38.50;;;7.10;99.90;;;;;;5079451;28;20057;-82
2021/04/30 04:10:38;;;;;;;108.47;37.58;;;7.10;99.90;;;;;;5091405;28;20100;-82
2021/04/30 04:13:19;;;;;;;188.88;41.95;;;7.10;99.90;;;;;;5089023;28;20063;-82
2021/04/30 04:15:47;;;;;;;108.68;35.22;;;7.10;99.90;;;;;;5076236;28;20502;-82
2021/04/30 04:18:15;;;;;;;101.10;36.08;;;7.10;99.90;;;;;;5068555;28;20426;-82
2021/04/30 04:20:42;;;;;;;115.75;38.78;;;7.10;99.90;;;;;;5069013;28;20304;-82
2021/04/30 04:23:09;;;;;;;108.32;37.03;;;7.10;99.90;;;;;;5090835;28;20036;-82
2021/04/30 04:25:37;;;;;;;89.43;35.60;;;7.10;99.90;;;;;;5091844;28;22328;-82
2021/04/30 04:28:04;;;;;;;101.00;36.95;;;7.10;99.90;;;;;;5088789;28;20066;-82
2021/04/30 04:30:30;;;;;;;107.85;37.47;;;7.10;99.90;;;;;;5091182;28;20135;-83
2021/04/30 04:32:57;;;;;;;99.68;35.83;;;7.10;99.90;;;;;;5089658;28;20122;-82
2021/04/30 04:35:23;;;;;;;106.45;37.25;;;7.10;99.90;;;;;;5090176;28;20479;-82
2021/04/30 04:37:49;;;;;;;121.63;38.97;;;7.10;99.90;;;;;;5079982;28;20064;-82
2021/04/30 04:40:16;;;;;;;112.97;35.60;;;7.10;99.90;;;;;;5090296;28;20076;-83
2021/04/30 04:42:43;;;;;;;134.45;37.70;;;7.10;99.90;;;;;;5089975;28;20060;-82
2021/04/30 04:45:12;;;;;;;126.15;37.05;;;7.10;99.90;;;;;;5092384;28;20085;-82
2021/04/30 04:47:39;;;;;;;128.60;38.25;;;7.10;99.90;;;;;;5089211;28;20066;-82
2021/04/30 04:50:07;;;;;;;151.63;38.35;;;7.20;99.90;;;;;;5088548;28;20028;-82
2021/04/30 04:52:34;;;;;;;151.15;40.45;;;7.20;99.90;;;;;;5089012;28;20118;-82
2021/04/30 04:55:00;;;;;;;109.15;37.35;;;7.20;99.90;;;;;;5088134;28;20059;-82
2021/04/30 04:57:26;;;;;;;108.70;34.58;;;7.30;99.90;;;;;;5085630;28;20123;-82
2021/04/30 04:59:52;;;;;;;93.68;35.45;;;7.30;99.90;;;;;;5075966;28;20111;-82
2021/04/30 05:02:19;;;;;;;85.05;34.90;;;7.30;99.90;;;;;;5087672;28;20058;-82
2021/04/30 05:04:45;;;;;;;86.30;35.80;;;7.30;99.90;;;;;;5086072;28;20048;-82
2021/04/30 05:07:11;;;;;;;198.40;44.80;;;7.40;99.90;;;;;;5086937;28;20080;-82
2021/04/30 05:09:38;;;;;;;132.55;39.13;;;7.50;99.90;;;;;;5084710;28;20063;-82
2021/04/30 05:12:04;;;;;;;86.50;34.20;;;7.60;99.90;;;;;;5088530;28;20047;-82
2021/04/30 05:14:32;;;;;;;84.43;34.95;;;7.60;99.90;;;;;;5085559;28;20043;-82
2021/04/30 05:17:07;;;;;;;76.15;32.35;;;7.70;99.90;;;;;;5091477;28;20072;-82
2021/04/30 05:19:34;;;;;;;99.30;36.78;;;7.80;99.90;;;;;;5090497;28;20192;-82
2021/04/30 05:22:02;;;;;;;98.22;33.88;;;7.90;99.90;;;;;;5084781;28;20048;-82
2021/04/30 05:24:29;;;;;;;119.55;36.92;;;8.00;99.90;;;;;;5088684;28;20044;-82
2021/04/30 05:26:55;;;;;;;105.75;36.50;;;8.00;99.90;;;;;;5093727;28;20048;-82
2021/04/30 05:29:22;;;;;;;81.10;33.15;;;8.10;99.90;;;;;;5090482;28;20056;-82
2021/04/30 05:31:48;;;;;;;73.82;32.67;;;8.30;99.90;;;;;;5092157;28;20051;-82
2021/04/30 05:34:14;;;;;;;73.28;31.58;;;8.30;99.90;;;;;;5087184;28;20044;-82
2021/04/30 05:36:40;;;;;;;66.82;29.33;;;8.30;99.90;;;;;;5090099;28;20074;-82
2021/04/30 05:39:07;;;;;;;78.72;31.10;;;8.40;99.90;;;;;;5090309;28;20050;-82
2021/04/30 05:41:33;;;;;;;58.03;29.48;;;8.40;99.90;;;;;;5088783;28;20044;-82
2021/04/30 05:43:59;;;;;;;61.75;28.65;;;8.40;99.90;;;;;;5089087;28;20114;-82
2021/04/30 05:46:26;;;;;;;53.42;28.27;;;8.40;99.90;;;;;;5082201;28;20047;-82
2021/04/30 05:48:52;;;;;;;65.05;27.15;;;8.40;99.90;;;;;;5090569;28;20068;-81
2021/04/30 05:51:18;;;;;;;75.40;29.80;;;8.50;99.90;;;;;;5089805;28;20109;-82
2021/04/30 05:53:45;;;;;;;98.40;30.77;;;8.50;99.90;;;;;;5091106;28;20095;-82
2021/04/30 05:56:28;;;;;;;79.60;31.33;;;8.60;99.90;;;;;;5092964;28;20044;-82
2021/04/30 05:58:54;;;;;;;69.70;30.40;;;8.60;99.90;;;;;;5091549;28;20059;-82
2021/04/30 06:01:22;;;;;;;78.32;30.00;;;8.60;99.90;;;;;;5088184;28;20082;-83
2021/04/30 06:03:48;;;;;;;66.95;27.75;;;8.70;99.90;;;;;;5089652;28;20127;-83
2021/04/30 06:06:14;;;;;;;70.43;26.70;;;8.70;99.90;;;;;;5089563;28;20177;-82
2021/04/30 06:08:41;;;;;;;66.28;26.33;;;8.70;99.90;;;;;;5087476;28;20052;-82
2021/04/30 06:11:07;;;;;;;61.60;25.67;;;8.70;99.90;;;;;;5082963;28;20044;-83
2021/04/30 06:13:34;;;;;;;51.25;20.63;;;8.80;99.90;;;;;;5090044;28;20090;-82
2021/04/30 06:16:00;;;;;;;53.33;19.60;;;8.80;99.90;;;;;;5087361;28;20072;-83
2021/04/30 06:18:26;;;;;;;47.58;17.83;;;8.90;99.90;;;;;;5093044;28;20075;-83
2021/04/30 06:20:53;;;;;;;34.65;16.42;;;8.90;99.90;;;;;;5090232;28;20048;-83
2021/04/30 06:23:19;;;;;;;44.20;15.95;;;8.90;99.90;;;;;;5071322;28;20144;-83
2021/04/30 06:25:46;;;;;;;49.80;15.90;;;9.00;99.90;;;;;;5085416;28;20073;-84
2021/04/30 06:28:12;;;;;;;46.70;17.20;;;9.10;99.90;;;;;;5087225;28;20052;-83
2021/04/30 06:30:39;;;;;;;42.45;16.42;;;9.20;99.90;;;;;;5065628;28;20522;-83
2021/04/30 06:33:11;;;;;;;45.17;17.83;;;9.20;99.90;;;;;;5078099;28;20051;-83
2021/04/30 06:35:37;;;;;;;43.25;16.30;;;9.30;99.90;;;;;;5104153;28;20120;-83
2021/04/30 06:38:04;;;;;;;46.85;16.17;;;9.30;99.90;;;;;;5087834;28;20455;-84
2021/04/30 06:40:31;;;;;;;40.65;17.25;;;9.30;99.90;;;;;;5089493;28;20060;-83
2021/04/30 06:42:58;;;;;;;46.50;17.67;;;9.40;99.90;;;;;;5088232;28;20070;-83
2021/04/30 06:45:26;;;;;;;39.45;16.85;;;9.50;99.90;;;;;;5072643;28;20048;-83
2021/04/30 06:47:53;;;;;;;53.97;17.63;;;9.50;99.90;;;;;;5101325;28;20056;-83
2021/04/30 06:50:25;;;;;;;35.85;18.48;;;9.60;99.90;;;;;;5068021;27;20508;-84
2021/04/30 06:52:54;;;;;;;34.65;15.45;;;9.60;99.90;;;;;;5080951;28;20117;-82
2021/04/30 06:55:21;;;;;;;42.28;17.23;;;9.70;99.90;;;;;;5075178;28;20059;-85
2021/04/30 06:57:48;;;;;;;42.25;17.17;;;9.70;99.90;;;;;;5047427;28;20610;-81
2021/04/30 07:00:17;;;;;;;49.90;17.35;;;9.80;99.90;;;;;;5066687;28;20047;-79
2021/04/30 07:02:44;;;;;;;38.17;18.63;;;9.80;99.90;;;;;;5091021;28;20052;-80
2021/04/30 07:05:12;;;;;;;43.47;18.30;;;9.90;99.90;;;;;;5076206;28;20052;-80
2021/04/30 07:07:39;;;;;;;53.60;19.17;;;10.00;99.90;;;;;;5093228;28;20555;-80
2021/04/30 07:10:07;;;;;;;46.75;18.17;;;10.00;99.90;;;;;;5090437;28;20409;-81
2021/04/30 07:12:34;;;;;;;42.55;19.15;;;10.10;99.90;;;;;;5096819;28;20052;-80
2021/04/30 07:15:04;;;;;;;48.90;21.23;;;10.10;99.90;;;;;;5057529;28;20066;-78
2021/04/30 07:17:30;;;;;;;50.72;20.02;;;10.10;99.90;;;;;;5078448;28;20063;-78
2021/04/30 07:19:57;;;;;;;46.10;20.08;;;10.10;99.90;;;;;;5081761;28;20055;-79
2021/04/30 07:22:24;;;;;;;38.65;19.92;;;10.20;99.90;;;;;;5076539;28;20456;-79
2021/04/30 07:24:50;;;;;;;46.72;18.23;;;10.20;99.90;;;;;;5075661;28;20138;-79
2021/04/30 07:27:19;;;;;;;46.80;19.20;;;10.20;99.90;;;;;;5073050;28;20414;-79
2021/04/30 07:29:46;;;;;;;41.45;19.13;;;10.20;99.90;;;;;;5072276;28;20151;-80
2021/04/30 07:32:13;;;;;;;40.83;18.70;;;10.20;99.90;;;;;;5079046;28;20052;-80
2021/04/30 07:34:40;;;;;;;39.97;20.65;;;10.20;99.90;;;;;;5067173;28;20142;-80
2021/04/30 07:37:07;;;;;;;52.83;18.73;;;10.30;99.90;;;;;;5079115;28;20048;-78
2021/04/30 07:39:33;;;;;;;43.55;19.73;;;10.20;99.90;;;;;;5074054;28;20122;-80
2021/04/30 07:42:01;;;;;;;46.10;18.60;;;10.20;99.90;;;;;;5086744;28;20471;-80
2021/04/30 07:44:28;;;;;;;45.03;19.42;;;10.30;99.90;;;;;;5056088;28;20036;-79
2021/04/30 07:46:58;;;;;;;46.65;19.35;;;10.20;99.90;;;;;;5071269;28;20051;-81
2021/04/30 07:49:37;;;;;;;42.08;18.65;;;10.20;99.90;;;;;;5081606;28;20056;-81
2021/04/30 07:52:09;;;;;;;41.20;17.90;;;10.20;99.90;;;;;;5057156;28;20077;-81
2021/04/30 07:54:37;;;;;;;32.25;16.65;;;10.10;99.90;;;;;;5040620;28;20051;-83
2021/04/30 07:57:05;;;;;;;40.55;17.50;;;10.00;99.90;;;;;;5076297;28;20052;-83
2021/04/30 07:59:32;;;;;;;51.72;16.80;;;10.00;99.90;;;;;;5074141;28;20099;-83
2021/04/30 08:01:59;;;;;;;38.20;18.13;;;10.00;99.90;;;;;;5089024;28;20058;-82
2021/04/30 08:04:29;;;;;;;31.08;18.27;;;10.00;99.90;;;;;;5074809;28;20051;-83
2021/04/30 08:06:55;;;;;;;39.53;18.17;;;10.00;99.90;;;;;;5091467;28;20048;-83
2021/04/30 08:09:22;;;;;;;41.60;18.25;;;10.10;99.90;;;;;;5051403;28;20100;-83
2021/04/30 08:11:48;;;;;;;38.92;18.02;;;10.20;99.90;;;;;;5061784;28;20040;-83
2021/04/30 08:14:15;;;;;;;42.05;19.08;;;10.20;99.90;;;;;;5076168;28;20079;-83
2021/04/30 08:16:42;;;;;;;39.95;18.08;;;10.20;99.90;;;;;;5087747;28;20055;-83
2021/04/30 08:19:09;;;;;;;49.20;18.08;;;10.20;99.90;;;;;;5069001;28;20094;-83
2021/04/30 08:21:36;;;;;;;45.30;17.30;;;10.20;99.90;;;;;;5096709;28;20047;-83
2021/04/30 08:24:03;;;;;;;37.58;16.65;;;10.30;99.90;;;;;;5083427;28;21359;-83
2021/04/30 08:26:30;;;;;;;32.85;15.65;;;10.40;99.90;;;;;;5087821;28;20048;-83
2021/04/30 08:28:58;;;;;;;35.70;15.32;;;10.50;99.90;;;;;;5087993;28;20103;-83
2021/04/30 08:31:26;;;;;;;31.00;16.02;;;10.60;99.90;;;;;;5087856;28;20119;-82
2021/04/30 08:33:52;;;;;;;26.77;15.02;;;10.70;99.90;;;;;;5087249;28;20508;-83
2021/04/30 08:36:21;;;;;;;35.15;16.83;;;10.80;99.90;;;;;;5086923;28;20044;-83
2021/04/30 08:38:48;;;;;;;33.28;16.15;;;10.90;99.90;;;;;;5088420;28;20154;-83
2021/04/30 08:41:15;;;;;;;27.67;14.43;;;11.00;99.90;;;;;;5082437;28;20054;-83
2021/04/30 08:43:42;;;;;;;38.15;17.70;;;11.10;99.90;;;;;;5090232;28;25003;-83
2021/04/30 08:46:13;;;;;;;28.95;15.85;;;11.20;99.90;;;;;;5089672;28;20052;-83
2021/04/30 08:48:40;;;;;;;26.63;15.90;;;11.40;99.90;;;;;;5073766;28;20048;-82
2021/04/30 08:51:06;;;;;;;23.83;14.52;;;11.60;99.90;;;;;;5070162;28;20080;-81
2021/04/30 08:53:33;;;;;;;24.23;14.88;;;11.70;99.90;;;;;;5060556;28;20052;-81
2021/04/30 08:56:03;;;;;;;26.65;15.15;;;11.70;99.90;;;;;;5068646;28;20064;-81
2021/04/30 08:58:32;;;;;;;23.75;14.43;;;11.70;99.90;;;;;;5043420;28;20052;-81
2021/04/30 09:00:59;;;;;;;28.60;15.02;;;11.70;99.90;;;;;;5064900;28;20425;-81
2021/04/30 09:03:26;;;;;;;22.30;14.98;;;11.70;99.90;;;;;;5068690;28;20079;-82
2021/04/30 09:05:57;;;;;;;28.80;16.35;;;11.80;99.90;;;;;;5043668;28;21821;-81
2021/04/30 09:08:24;;;;;;;27.35;14.70;;;12.00;99.90;;;;;;5047519;28;20459;-82
2021/04/30 09:11:09;;;;;;;21.65;13.90;;;12.20;99.90;;;;;;5067005;28;20044;-80
2021/04/30 09:13:40;;;;;;;24.48;16.52;;;12.40;99.90;;;;;;5086009;28;20052;-81
2021/04/30 09:16:07;;;;;;;26.50;16.35;;;12.50;99.90;;;;;;5058971;28;20472;-80
2021/04/30 09:18:34;;;;;;;29.67;16.55;;;12.60;99.90;;;;;;5064571;28;20049;-82
2021/04/30 09:21:13;;;;;;;27.17;16.35;;;12.60;99.90;;;;;;5064145;28;20044;-82
2021/04/30 09:23:45;;;;;;;22.33;15.70;;;12.60;99.90;;;;;;5059830;28;20062;-83
2021/04/30 09:26:35;;;;;;;22.70;15.07;;;12.60;99.90;;;;;;5051457;28;20057;-84
2021/04/30 09:29:06;;;;;;;18.60;15.73;;;12.60;99.90;;;;;;5035078;28;20044;-83
2021/04/30 09:31:44;;;;;;;23.17;16.27;;;12.70;99.90;;;;;;5065282;28;20405;-80
2021/04/30 09:34:24;;;;;;;22.25;16.50;;;12.70;99.90;;;;;;5035422;28;20110;-81
2021/04/30 09:37:12;;;;;;;23.10;15.85;;;12.70;99.90;;;;;;5064363;28;20053;-82
2021/04/30 09:39:59;;;;;;;20.98;16.00;;;12.70;99.90;;;;;;5076785;28;20127;-84
2021/04/30 09:42:30;;;;;;;26.13;16.80;;;12.60;99.90;;;;;;5081105;28;20074;-83
2021/04/30 09:44:59;;;;;;;23.63;17.55;;;12.70;99.90;;;;;;5050138;28;20097;-82
2021/04/30 09:47:29;;;;;;;21.80;14.95;;;12.70;99.90;;;;;;5080961;28;20393;-80
2021/04/30 09:50:03;;;;;;;24.27;16.77;;;12.80;99.90;;;;;;5085314;28;20124;-81
2021/04/30 09:52:29;;;;;;;25.08;17.75;;;12.80;99.90;;;;;;5071526;28;20115;-80
2021/04/30 09:55:01;;;;;;;23.20;16.60;;;12.90;99.90;;;;;;5046108;28;20403;-80
2021/04/30 09:57:32;;;;;;;22.83;15.60;;;12.90;99.90;;;;;;5104961;28;20574;-81
2021/04/30 10:00:12;;;;;;;24.05;17.13;;;12.90;99.90;;;;;;5101219;28;20060;-81
2021/04/30 10:02:40;;;;;;;23.85;17.08;;;12.80;99.90;;;;;;5082009;28;20055;-81
2021/04/30 10:05:08;;;;;;;22.60;16.17;;;12.80;99.90;;;;;;5070193;28;20045;-81
2021/04/30 10:07:57;;;;;;;19.95;14.40;;;12.80;99.90;;;;;;5058928;28;20726;-82
2021/04/30 10:10:23;;;;;;;25.25;15.10;;;12.80;99.90;;;;;;5101647;28;20055;-81
2021/04/30 10:12:58;;;;;;;17.40;14.15;;;12.80;99.90;;;;;;5086762;28;20131;-83
2021/04/30 10:15:25;;;;;;;21.85;16.17;;;12.70;99.90;;;;;;5082364;28;20463;-80
2021/04/30 10:17:57;;;;;;;19.65;14.73;;;12.70;99.90;;;;;;5080920;28;20078;-79
2021/04/30 10:20:23;;;;;;;22.58;16.15;;;12.80;99.90;;;;;;5086147;28;20048;-80
2021/04/30 10:22:51;;;;;;;22.55;15.82;;;13.00;99.90;;;;;;5069246;28;20384;-82
2021/04/30 10:25:19;;;;;;;20.73;15.13;;;13.30;99.90;;;;;;5079465;28;20066;-79
2021/04/30 10:27:48;;;;;;;20.67;15.68;;;13.60;99.90;;;;;;5089296;28;20048;-79
2021/04/30 10:30:32;;;;;;;18.45;14.35;;;13.90;99.90;;;;;;5081755;28;20058;-79
2021/04/30 10:33:10;;;;;;;22.02;15.00;;;14.30;99.90;;;;;;5083360;28;20074;-83
2021/04/30 10:36:05;;;;;;;20.77;15.40;;;14.30;99.90;;;;;;5071567;28;20044;-83
2021/04/30 10:38:39;;;;;;;20.80;14.60;;;14.60;99.90;;;;;;5087614;27;20839;-83
2021/04/30 10:41:13;;;;;;;23.10;16.50;;;14.70;99.90;;;;;;5091435;28;20126;-82
2021/04/30 10:43:40;;;;;;;27.10;17.15;;;15.00;99.90;;;;;;5090055;28;20138;-80
2021/04/30 10:46:23;;;;;;;20.77;16.45;;;15.30;99.90;;;;;;5080868;28;20075;-82
2021/04/30 10:49:05;;;;;;;;;;;15.50;99.90;;;;;;5079155;28;20041;-80
2021/04/30 10:51:33;;;;;;;25.08;16.48;;;15.60;99.90;;;;;;5059130;28;19931;-77
2021/04/30 10:54:23;;;;;;;23.67;14.98;;;15.60;99.90;;;;;;5064110;28;20424;-80
2021/04/30 10:57:28;;;;;;;23.13;16.52;;;15.70;99.90;;;;;;5056411;28;20056;-78
2021/04/30 10:59:54;;;;;;;19.50;14.80;;;15.60;99.90;;;;;;5038634;28;20072;-80
2021/04/30 11:05:17;;;;;;;22.15;16.80;;;15.20;99.90;;;;;;5056657;28;20057;-80
2021/04/30 11:07:51;;;;;;;24.75;16.35;;;14.90;99.90;;;;;;5049325;28;20052;-77
2021/04/30 11:10:20;;;;;;;28.30;17.17;;;14.60;99.90;;;;;;5077173;28;20463;-80
2021/04/30 11:13:14;;;;;;;22.63;16.13;;;14.30;99.90;;;;;;5062041;28;20155;-78
2021/04/30 11:15:46;;;;;;;24.00;17.20;;;13.80;99.90;;;;;;5065738;28;20059;-78
2021/04/30 11:18:21;;;;;;;26.50;16.92;;;13.50;99.90;;;;;;5071097;28;20056;-79
2021/04/30 11:21:02;;;;;;;27.58;18.55;;;13.20;99.90;;;;;;5048465;28;20112;-79
2021/04/30 11:23:52;;;;;;;28.30;17.25;;;12.90;99.90;;;;;;5055083;28;20052;-78
2021/04/30 11:26:19;;;;;;;26.35;18.60;;;12.60;99.90;;;;;;5066015;28;20157;-79
2021/04/30 11:28:45;;;;;;;19.70;14.85;;;12.50;99.90;;;;;;5065085;28;20127;-79
2021/04/30 11:31:24;;;;;;;19.85;14.30;;;12.40;99.90;;;;;;5067692;28;20053;-78
2021/04/30 11:34:09;;;;;;;21.13;14.05;;;12.20;99.90;;;;;;5086465;27;20464;-79
2021/04/30 11:36:37;;;;;;;19.95;12.95;;;12.00;99.90;;;;;;5086549;28;20131;-78
2021/04/30 11:39:21;;;;;;;20.52;12.15;;;11.90;99.90;;;;;;5068554;28;20040;-78
2021/04/30 11:42:05;;;;;;;18.63;13.15;;;11.70;99.90;;;;;;5084320;28;20044;-77
2021/04/30 11:44:32;;;;;;;25.60;13.65;;;11.40;99.90;;;;;;5086582;27;20054;-81
2021/04/30 11:47:05;;;;;;;21.17;14.48;;;11.20;99.90;;;;;;5087907;28;20048;-81
2021/04/30 11:49:35;;;;;;;22.95;14.27;;;11.10;99.90;;;;;;5093104;28;20041;-81
2021/04/30 11:52:03;;;;;;;26.23;13.90;;;11.00;99.90;;;;;;5090102;28;20044;-81
2021/04/30 11:54:35;;;;;;;33.63;15.95;;;10.90;99.90;;;;;;5067378;28;20059;-78
2021/04/30 11:57:05;;;;;;;30.50;16.15;;;10.90;99.90;;;;;;5060375;28;20106;-78
2021/04/30 11:59:34;;;;;;;24.40;16.17;;;11.00;99.90;;;;;;5063821;28;20547;-78
2021/04/30 12:02:14;;;;;;;26.70;16.42;;;11.20;99.90;;;;;;5066703;28;20411;-79
2021/04/30 12:04:47;;;;;;;23.95;16.55;;;11.40;99.90;;;;;;5067033;28;20055;-78
2021/04/30 12:07:34;;;;;;;24.90;16.23;;;11.70;99.90;;;;;;5066515;28;20052;-78
2021/04/30 12:10:04;;;;;;;28.83;16.73;;;11.90;99.90;;;;;;5085015;27;20086;-81
2021/04/30 12:12:30;;;;;;;24.48;15.15;;;12.20;99.90;;;;;;5101834;28;20132;-79
2021/04/30 12:15:05;;;;;;;21.40;14.57;;;12.30;99.90;;;;;;5087521;28;20093;-79
2021/04/30 12:17:41;;;;;;;19.95;13.93;;;12.30;99.90;;;;;;5066041;28;20068;-79
2021/04/30 12:20:20;;;;;;;21.98;13.95;;;12.20;99.90;;;;;;5069173;28;20090;-79
2021/04/30 12:22:54;;;;;;;21.63;14.95;;;12.10;99.90;;;;;;5072339;28;20064;-79
2021/04/30 12:25:28;;;;;;;22.27;14.98;;;12.00;99.90;;;;;;5067720;28;20188;-79
2021/04/30 12:28:26;;;;;;;24.00;15.52;;;11.90;99.90;;;;;;5075373;28;20048;-79
2021/04/30 12:31:07;;;;;;;22.50;14.75;;;11.80;99.90;;;;;;5075065;28;20067;-79
2021/04/30 12:33:37;;;;;;;22.08;15.05;;;11.70;99.90;;;;;;5078643;28;20048;-81
2021/04/30 12:36:15;;;;;;;21.67;15.13;;;11.60;99.90;;;;;;5073922;28;20048;-78
2021/04/30 12:38:44;;;;;;;22.67;15.32;;;11.60;99.90;;;;;;5079056;28;20122;-82
2021/04/30 12:41:22;;;;;;;20.33;13.90;;;11.50;99.90;;;;;;5085167;28;20486;-79
2021/04/30 12:43:50;;;;;;;21.42;14.18;;;11.40;99.90;;;;;;5082950;28;20056;-79
2021/04/30 12:46:26;;;;;;;26.52;14.25;;;11.30;99.90;;;;;;5084506;28;20499;-80